createdAt,value
2019-04-05T00:01:33.258Z,8.47
2019-04-05T00:04:02.592Z,8.77
2019-04-05T00:06:32.447Z,8.20
2019-04-05T00:09:01.772Z,8.57
2019-04-05T00:11:31.131Z,8.33
2019-04-05T00:14:02.638Z,9.03
2019-04-05T00:16:32.148Z,8.10
2019-04-05T00:19:01.307Z,7.93
2019-04-05T00:21:30.426Z,8.37
2019-04-05T00:24:02.103Z,8.53
2019-04-05T00:26:31.092Z,7.90
2019-04-05T00:28:59.992Z,8.03
2019-04-05T00:31:29.384Z,7.60
2019-04-05T00:33:59.063Z,8.23
2019-04-05T00:36:27.972Z,8.23
2019-04-05T00:38:56.898Z,8.00
2019-04-05T00:41:25.850Z,8.10
2019-04-05T00:43:54.968Z,7.97
2019-04-05T00:46:24.518Z,8.30
2019-04-05T00:48:54.541Z,8.97
2019-04-05T00:51:25.487Z,7.93
2019-04-05T00:53:55.269Z,7.27
2019-04-05T00:56:24.196Z,8.07
2019-04-05T00:58:54.246Z,8.60
2019-04-05T01:01:23.014Z,8.73
2019-04-05T01:03:52.065Z,8.00
2019-04-05T01:06:21.977Z,8.03
2019-04-05T01:08:50.754Z,8.67
2019-04-05T01:11:20.111Z,7.90
2019-04-05T01:13:48.960Z,9.43
2019-04-05T01:16:19.068Z,9.10
2019-04-05T01:18:47.991Z,8.60
2019-04-05T01:21:19.943Z,8.97
2019-04-05T01:23:49.764Z,8.67
2019-04-05T01:26:18.950Z,9.00
2019-04-05T01:28:47.787Z,8.10
2019-04-05T01:31:17.071Z,8.37
2019-04-05T01:33:47.956Z,8.73
2019-04-05T01:36:17.297Z,7.83
2019-04-05T01:38:46.119Z,8.60
2019-04-05T01:41:15.948Z,7.80
2019-04-05T01:43:45.239Z,8.20
2019-04-05T01:46:14.211Z,8.57
2019-04-05T01:48:44.525Z,8.03
2019-04-05T01:51:13.368Z,7.90
2019-04-05T01:53:44.531Z,8.03
2019-04-05T01:56:14.144Z,8.23
2019-04-05T01:58:43.728Z,8.20
2019-04-05T02:01:12.564Z,8.63
2019-04-05T02:03:41.380Z,8.60
2019-04-05T02:06:11.973Z,8.33
2019-04-05T02:08:41.699Z,8.13
2019-04-05T02:11:10.815Z,8.10
2019-04-05T02:13:39.630Z,8.83
2019-04-05T02:16:10.023Z,7.40
2019-04-05T02:18:38.868Z,7.80
2019-04-05T02:21:08.967Z,7.50
2019-04-05T02:23:37.911Z,7.70
2019-04-05T02:26:08.271Z,7.73
2019-04-05T02:28:37.230Z,7.33
2019-04-05T02:31:07.409Z,7.50
2019-04-05T02:33:36.382Z,6.47
2019-04-05T02:36:06.451Z,7.70
2019-04-05T02:38:35.298Z,7.53
2019-04-05T02:41:04.143Z,8.00
2019-04-05T02:43:33.508Z,7.90
2019-04-05T02:46:03.169Z,8.73
2019-04-05T02:48:32.717Z,8.87
2019-04-05T02:51:01.602Z,7.83
2019-04-05T02:53:31.673Z,8.50
2019-04-05T02:56:03.006Z,8.73
2019-04-05T02:58:29.455Z,8.53
2019-04-05T03:00:58.306Z,8.20
2019-04-05T03:03:28.385Z,8.47
2019-04-05T03:05:57.928Z,8.37
2019-04-05T03:08:26.810Z,8.40
2019-04-05T03:11:04.612Z,8.03
2019-04-05T03:13:35.564Z,8.43
2019-04-05T03:16:07.081Z,9.20
2019-04-05T03:18:36.373Z,9.37
2019-04-05T03:21:05.880Z,8.70
2019-04-05T03:23:35.008Z,8.50
2019-04-05T03:26:04.746Z,8.93
2019-04-05T03:28:34.333Z,8.93
2019-04-05T03:31:03.541Z,10.50
2019-04-05T03:33:32.889Z,8.50
2019-04-05T03:36:01.940Z,8.47
2019-04-05T03:38:30.802Z,9.57
2019-04-05T03:40:59.665Z,8.83
2019-04-05T03:43:28.495Z,9.27
2019-04-05T03:45:57.308Z,10.50
2019-04-05T03:48:26.983Z,9.93
2019-04-05T03:50:55.978Z,9.67
2019-04-05T03:53:24.765Z,9.27
2019-04-05T03:55:53.576Z,10.27
2019-04-05T03:58:22.432Z,10.93
2019-04-05T04:00:51.257Z,10.57
2019-04-05T04:03:20.760Z,9.93
2019-04-05T04:05:49.690Z,10.27
2019-04-05T04:08:23.263Z,9.97
2019-04-05T04:10:49.315Z,9.97
2019-04-05T04:13:18.405Z,10.07
2019-04-05T04:15:48.485Z,10.43
2019-04-05T04:18:17.406Z,10.67
2019-04-05T04:20:46.460Z,9.80
2019-04-05T04:23:15.697Z,9.77
2019-04-05T04:25:45.536Z,10.63
2019-04-05T04:28:14.672Z,8.90
2019-04-05T04:30:45.011Z,9.27
2019-04-05T04:33:13.812Z,9.53
2019-04-05T04:35:42.633Z,9.17
2019-04-05T04:38:11.430Z,8.70
2019-04-05T04:40:41.366Z,10.23
2019-04-05T04:43:10.791Z,11.57
2019-04-05T04:45:39.642Z,10.93
2019-04-05T04:48:08.739Z,11.07
2019-04-05T04:50:40.922Z,10.87
2019-04-05T04:53:10.464Z,10.90
2019-04-05T04:55:39.282Z,10.90
2019-04-05T04:58:10.067Z,11.90
2019-04-05T05:00:39.425Z,12.30
2019-04-05T05:03:09.976Z,11.23
2019-04-05T05:05:38.854Z,10.97
2019-04-05T05:08:07.856Z,11.87
2019-04-05T05:10:36.823Z,11.10
2019-04-05T05:13:07.563Z,12.00
2019-04-05T05:15:38.003Z,11.70
2019-04-05T05:18:08.494Z,12.07
2019-04-05T05:20:37.914Z,13.23
2019-04-05T05:23:07.659Z,11.87
2019-04-05T05:25:36.637Z,10.53
2019-04-05T05:28:05.874Z,11.17
2019-04-05T05:30:35.135Z,9.77
2019-04-05T05:33:04.108Z,11.37
2019-04-05T05:35:32.995Z,10.43
2019-04-05T05:38:02.627Z,11.53
2019-04-05T05:40:35.159Z,10.40
2019-04-05T05:43:00.280Z,11.30
2019-04-05T05:45:29.112Z,12.40
2019-04-05T05:47:57.901Z,12.57
2019-04-05T05:50:28.069Z,11.60
2019-04-05T05:52:58.806Z,12.33
2019-04-05T05:55:30.118Z,10.30
2019-04-05T05:57:58.845Z,11.80
2019-04-05T06:00:30.315Z,12.83
2019-04-05T06:02:56.388Z,11.37
2019-04-05T06:05:25.915Z,12.10
2019-04-05T06:07:58.763Z,12.93
2019-04-05T06:10:26.086Z,11.73
2019-04-05T06:12:58.552Z,13.03
2019-04-05T06:15:24.371Z,10.87
2019-04-05T06:18:04.592Z,11.53
2019-04-05T06:20:24.684Z,11.43
2019-04-05T06:22:55.998Z,13.20
2019-04-05T06:25:25.029Z,13.17
2019-04-05T06:27:54.494Z,11.00
2019-04-05T06:30:28.514Z,10.63
2019-04-05T06:32:53.895Z,10.63
2019-04-05T06:35:24.054Z,10.30
2019-04-05T06:37:53.646Z,9.63
2019-04-05T06:40:22.472Z,8.83
2019-04-05T06:42:51.732Z,10.17
2019-04-05T06:45:20.609Z,8.83
2019-04-05T06:47:49.918Z,9.30
2019-04-05T06:50:18.859Z,9.40
2019-04-05T06:52:49.725Z,8.30
2019-04-05T06:55:18.618Z,8.90
2019-04-05T06:57:47.481Z,9.67
2019-04-05T07:00:17.078Z,8.63
2019-04-05T07:02:46.399Z,9.13
2019-04-05T07:05:15.296Z,9.30
2019-04-05T07:07:44.200Z,9.43
2019-04-05T07:10:13.151Z,8.40
2019-04-05T07:12:42.094Z,7.93
2019-04-05T07:15:11.643Z,8.77
2019-04-05T07:17:41.283Z,9.47
2019-04-05T07:20:11.846Z,9.03
2019-04-05T07:22:42.049Z,14.73
2019-04-05T07:25:11.083Z,12.30
2019-04-05T07:27:39.914Z,8.83
2019-04-05T07:30:08.980Z,8.63
2019-04-05T07:32:38.681Z,8.80
2019-04-05T07:35:08.447Z,8.60
2019-04-05T07:37:37.790Z,9.97
2019-04-05T07:40:08.602Z,9.67
2019-04-05T07:42:37.846Z,10.67
2019-04-05T07:45:07.034Z,9.70
2019-04-05T07:47:36.667Z,10.90
2019-04-05T07:50:06.345Z,11.80
2019-04-05T07:52:35.187Z,12.07
2019-04-05T07:55:04.674Z,13.03
2019-04-05T07:57:33.532Z,12.10
2019-04-05T08:00:02.374Z,12.57
2019-04-05T08:02:31.850Z,12.87
2019-04-05T08:05:00.898Z,13.17
2019-04-05T08:07:30.210Z,12.97
2019-04-05T08:10:02.679Z,12.47
2019-04-05T08:12:29.931Z,12.57
2019-04-05T08:14:59.394Z,11.90
2019-04-05T08:17:28.430Z,11.70
2019-04-05T08:19:57.844Z,12.27
2019-04-05T08:22:26.650Z,12.03
2019-04-05T08:24:56.451Z,12.50
2019-04-05T08:27:26.658Z,14.07
2019-04-05T08:29:55.465Z,14.20
2019-04-05T08:32:24.261Z,15.00
2019-04-05T08:34:55.423Z,14.37
2019-04-05T08:37:24.536Z,13.47
2019-04-05T08:39:53.518Z,13.00
2019-04-05T08:42:22.376Z,14.57
2019-04-05T08:44:51.674Z,13.93
2019-04-05T08:47:22.566Z,14.20
2019-04-05T08:49:50.046Z,14.67
2019-04-05T08:52:18.877Z,13.63
2019-04-05T08:54:47.769Z,12.67
2019-04-05T08:57:16.619Z,12.07
2019-04-05T08:59:46.188Z,12.97
2019-04-05T09:02:15.052Z,14.50
2019-04-05T09:04:43.891Z,13.93
2019-04-05T09:07:13.420Z,14.67
2019-04-05T09:09:43.136Z,14.83
2019-04-05T09:12:13.172Z,13.80
2019-04-05T09:14:42.058Z,12.37
2019-04-05T09:17:10.879Z,14.13
2019-04-05T09:19:40.376Z,12.63
2019-04-05T09:22:09.195Z,12.63
2019-04-05T09:24:38.060Z,12.43
2019-04-05T09:27:07.903Z,13.73
2019-04-05T09:29:36.818Z,12.80
2019-04-05T09:32:05.820Z,13.17
2019-04-05T09:34:34.643Z,14.17
2019-04-05T09:37:03.760Z,12.93
2019-04-05T09:39:33.063Z,12.70
2019-04-05T09:42:01.904Z,13.03
2019-04-05T09:44:32.039Z,13.20
2019-04-05T09:47:01.876Z,12.37
2019-04-05T09:49:36.973Z,12.10
2019-04-05T09:52:03.214Z,13.37
2019-04-05T09:54:33.328Z,12.27
2019-04-05T09:57:03.370Z,13.20
2019-04-05T09:59:32.499Z,12.53
2019-04-05T10:02:04.439Z,12.57
2019-04-05T10:04:33.222Z,13.77
2019-04-05T10:07:03.492Z,11.20
2019-04-05T10:09:33.312Z,12.70
2019-04-05T10:12:03.464Z,13.03
2019-04-05T10:14:32.443Z,12.30
2019-04-05T10:17:01.240Z,13.60
2019-04-05T10:19:30.725Z,11.77
2019-04-05T10:21:59.576Z,12.07
2019-04-05T10:24:29.456Z,11.80
2019-04-05T10:26:58.438Z,10.93
2019-04-05T10:29:27.471Z,11.67
2019-04-05T10:31:56.748Z,11.13
2019-04-05T10:34:26.009Z,10.97
2019-04-05T10:36:54.960Z,11.50
2019-04-05T10:39:23.843Z,11.00
2019-04-05T10:42:02.832Z,8.93
2019-04-05T10:44:21.649Z,8.50
2019-04-05T10:46:51.046Z,9.33
2019-04-05T10:49:20.708Z,7.93
2019-04-05T10:51:49.611Z,7.73
2019-04-05T10:54:18.462Z,8.53
2019-04-05T10:56:49.610Z,7.73
2019-04-05T10:59:19.406Z,6.73
2019-04-05T11:01:48.763Z,6.67
2019-04-05T11:04:21.523Z,6.43
2019-04-05T11:06:51.539Z,6.30
2019-04-05T11:09:20.817Z,7.60
2019-04-05T11:11:50.698Z,7.60
2019-04-05T11:14:19.604Z,7.17
2019-04-05T11:16:58.237Z,6.80
2019-04-05T11:19:18.186Z,6.90
2019-04-05T11:21:48.519Z,5.97
2019-04-05T11:24:16.686Z,4.70
2019-04-05T11:26:45.490Z,5.70
2019-04-05T11:29:14.851Z,5.97
2019-04-05T11:31:55.967Z,5.77
2019-04-05T11:34:12.792Z,6.10
2019-04-05T11:36:42.806Z,5.80
2019-04-05T11:39:12.302Z,5.37
2019-04-05T11:41:41.123Z,4.90
2019-04-05T11:44:10.877Z,5.00
2019-04-05T11:46:39.688Z,4.80
2019-04-05T11:49:09.692Z,4.30
2019-04-05T11:51:38.991Z,4.57
2019-04-05T11:54:08.503Z,4.27
2019-04-05T11:56:37.867Z,4.13
2019-04-05T11:59:08.780Z,4.47
2019-04-05T12:01:44.222Z,5.00
2019-04-05T12:04:13.132Z,5.50
2019-04-05T12:06:42.019Z,5.93
2019-04-05T12:09:10.859Z,5.83
2019-04-05T12:11:39.697Z,6.27
2019-04-05T12:14:08.570Z,4.73
2019-04-05T12:16:38.731Z,5.47
2019-04-05T12:19:08.591Z,5.83
2019-04-05T12:21:37.409Z,6.07
2019-04-05T12:24:06.664Z,5.90
2019-04-05T12:26:35.467Z,5.60
2019-04-05T12:29:04.409Z,6.20
2019-04-05T12:31:33.297Z,5.43
2019-04-05T12:34:02.088Z,5.03
2019-04-05T12:36:30.871Z,5.53
2019-04-05T12:39:01.575Z,5.40
2019-04-05T12:41:28.835Z,6.00
2019-04-05T12:43:58.917Z,5.60
2019-04-05T12:46:27.815Z,5.97
2019-04-05T12:48:56.703Z,5.80
2019-04-05T12:51:26.684Z,5.83
2019-04-05T12:53:57.373Z,5.90
2019-04-05T12:56:27.252Z,4.90
2019-04-05T12:58:57.049Z,5.90
2019-04-05T13:01:26.614Z,5.63
2019-04-05T13:03:58.655Z,6.77
2019-04-05T13:06:25.288Z,5.60
2019-04-05T13:08:54.883Z,5.93
2019-04-05T13:11:26.772Z,5.60
2019-04-05T13:13:54.353Z,5.97
2019-04-05T13:16:22.771Z,6.43
2019-04-05T13:18:51.596Z,5.57
2019-04-05T13:21:20.474Z,6.20
2019-04-05T13:23:49.351Z,6.30
2019-04-05T13:26:19.460Z,5.17
2019-04-05T13:28:48.573Z,5.33
2019-04-05T13:31:18.879Z,6.10
2019-04-05T13:33:46.174Z,5.70
2019-04-05T13:36:15.077Z,5.17
2019-04-05T13:38:54.197Z,5.33
2019-04-05T13:41:13.346Z,5.93
2019-04-05T13:43:42.750Z,5.83
2019-04-05T13:46:21.312Z,5.67
2019-04-05T13:48:40.690Z,5.77
2019-04-05T13:51:12.253Z,5.40
2019-04-05T13:53:40.475Z,5.47
2019-04-05T13:56:10.956Z,5.70
2019-04-05T13:58:39.166Z,5.87
2019-04-05T14:01:08.007Z,6.83
2019-04-05T14:03:39.879Z,5.67
2019-04-05T14:06:10.695Z,5.93
2019-04-05T14:08:41.128Z,5.27
2019-04-05T14:11:06.481Z,5.33
2019-04-05T14:13:35.363Z,5.77
2019-04-05T14:16:06.233Z,5.67
2019-04-05T14:18:33.104Z,6.70
2019-04-05T14:21:01.984Z,6.00
2019-04-05T14:23:30.952Z,5.33
2019-04-05T14:26:00.335Z,6.03
2019-04-05T14:28:28.896Z,5.20
2019-04-05T14:31:02.244Z,5.53
2019-04-05T14:33:27.790Z,5.07
2019-04-05T14:35:57.079Z,5.53
2019-04-05T14:38:25.886Z,5.07
2019-04-05T14:40:55.848Z,5.07
2019-04-05T14:43:24.651Z,5.73
2019-04-05T14:45:54.517Z,6.03
2019-04-05T14:48:23.305Z,6.50
2019-04-05T14:50:52.116Z,5.70
2019-04-05T14:53:20.987Z,6.07
2019-04-05T14:55:51.507Z,5.90
2019-04-05T14:58:20.604Z,6.10
2019-04-05T15:00:51.415Z,6.07
2019-04-05T15:03:20.724Z,5.40
2019-04-05T15:05:49.631Z,5.57
2019-04-05T15:08:20.702Z,5.47
2019-04-05T15:10:51.232Z,5.80
2019-04-05T15:13:17.553Z,5.60
2019-04-05T15:15:46.328Z,5.80
2019-04-05T15:18:15.461Z,5.50
2019-04-05T15:20:44.234Z,5.60
2019-04-05T15:23:15.141Z,5.90
2019-04-05T15:25:43.922Z,5.90
2019-04-05T15:28:12.740Z,6.93
2019-04-05T15:30:41.564Z,6.23
2019-04-05T15:33:11.326Z,5.77
2019-04-05T15:35:40.311Z,6.33
2019-04-05T15:38:09.152Z,7.23
2019-04-05T15:40:39.139Z,6.17
2019-04-05T15:43:07.977Z,5.97
2019-04-05T15:45:36.881Z,6.70
2019-04-05T15:48:06.909Z,6.83
2019-04-05T15:50:35.747Z,7.13
2019-04-05T15:53:04.710Z,8.03
2019-04-05T15:55:34.403Z,8.00
2019-04-05T15:58:03.848Z,7.20
2019-04-05T16:00:41.042Z,8.43
2019-04-05T16:03:09.880Z,8.80
2019-04-05T16:05:38.684Z,7.83
2019-04-05T16:08:07.735Z,7.83
2019-04-05T16:10:36.585Z,8.20
2019-04-05T16:13:07.972Z,7.93
2019-04-05T16:15:34.334Z,8.43
2019-04-05T16:18:03.132Z,9.03
2019-04-05T16:20:32.412Z,8.53
2019-04-05T16:23:01.921Z,8.27
2019-04-05T16:25:31.322Z,8.40
2019-04-05T16:28:00.166Z,8.80
2019-04-05T16:30:29.042Z,9.13
2019-04-05T16:32:59.106Z,8.40
2019-04-05T16:35:28.099Z,8.47
2019-04-05T16:37:57.540Z,8.30
2019-04-05T16:40:27.115Z,9.73
2019-04-05T16:43:02.449Z,8.30
2019-04-05T16:45:25.644Z,8.23
2019-04-05T16:47:55.260Z,8.30
2019-04-05T16:50:24.132Z,9.30
2019-04-05T16:52:52.915Z,8.63
2019-04-05T16:55:21.879Z,9.20
2019-04-05T16:57:51.148Z,9.17
2019-04-05T17:00:19.936Z,8.50
2019-04-05T17:02:49.469Z,9.47
2019-04-05T17:05:19.035Z,8.97
2019-04-05T17:07:48.428Z,9.20
2019-04-05T17:10:17.254Z,9.53
2019-04-05T17:12:46.740Z,9.70
2019-04-05T17:15:17.558Z,9.50
2019-04-05T17:17:47.485Z,10.10
2019-04-05T17:20:17.639Z,9.50
2019-04-05T17:22:57.581Z,9.13
2019-04-05T17:25:19.552Z,8.93
2019-04-05T17:27:48.433Z,8.23
2019-04-05T17:30:17.508Z,8.30
2019-04-05T17:32:46.415Z,7.97
2019-04-05T17:35:15.218Z,8.63
2019-04-05T17:37:44.031Z,8.33
2019-04-05T17:40:13.375Z,8.47
2019-04-05T17:42:43.314Z,8.03
2019-04-05T17:45:12.218Z,8.67
2019-04-05T17:47:41.054Z,8.40
2019-04-05T17:50:10.810Z,8.23
2019-04-05T17:52:38.870Z,8.43
2019-04-05T17:55:07.798Z,9.20
2019-04-05T17:57:36.618Z,8.77
2019-04-05T18:00:06.834Z,10.70
2019-04-05T18:02:35.664Z,9.67
2019-04-05T18:05:05.186Z,10.57
2019-04-05T18:07:34.025Z,10.87
2019-04-05T18:10:02.893Z,11.47
2019-04-05T18:12:31.803Z,12.33
2019-04-05T18:15:00.773Z,12.50
2019-04-05T18:17:30.193Z,12.33
2019-04-05T18:19:59.129Z,10.50
2019-04-05T18:22:28.045Z,11.50
2019-04-05T18:24:57.519Z,11.63
2019-04-05T18:27:26.690Z,11.13
2019-04-05T18:29:55.631Z,11.57
2019-04-05T18:32:24.530Z,11.03
2019-04-05T18:34:53.532Z,11.40
2019-04-05T18:37:22.367Z,11.73
2019-04-05T18:39:51.155Z,12.03
2019-04-05T18:42:20.983Z,11.70
2019-04-05T18:44:49.907Z,12.27
2019-04-05T18:47:19.336Z,13.57
2019-04-05T18:49:48.209Z,11.97
2019-04-05T18:52:17.439Z,13.47
2019-04-05T18:54:46.270Z,13.67
2019-04-05T18:57:15.249Z,15.07
2019-04-05T18:59:44.292Z,14.20
2019-04-05T19:02:16.608Z,15.10
2019-04-05T19:04:45.525Z,14.87
2019-04-05T19:07:14.371Z,15.77
2019-04-05T19:09:43.282Z,15.37
2019-04-05T19:12:12.997Z,16.47
2019-04-05T19:14:42.019Z,15.97
2019-04-05T19:17:23.273Z,15.07
2019-04-05T19:19:42.187Z,17.97
2019-04-05T19:22:12.671Z,17.80
2019-04-05T19:24:41.512Z,16.83
2019-04-05T19:27:11.379Z,18.73
2019-04-05T19:29:41.151Z,17.93
2019-04-05T19:49:35.135Z,20.10
2019-04-05T19:52:03.959Z,21.27
2019-04-05T19:54:33.143Z,22.27
2019-04-05T19:57:02.282Z,21.13
2019-04-05T19:59:31.151Z,20.63
2019-04-05T20:02:01.275Z,22.03
2019-04-05T20:04:30.262Z,21.53
2019-04-05T20:06:59.157Z,21.43
2019-04-05T20:09:28.114Z,21.33
2019-04-05T20:11:57.034Z,22.20
2019-04-05T20:14:25.879Z,21.00
2019-04-05T20:16:54.781Z,23.43
2019-04-05T20:19:23.735Z,22.93
2019-04-05T20:21:52.563Z,23.60
2019-04-05T20:24:21.465Z,23.43
2019-04-05T20:26:50.413Z,22.33
2019-04-05T20:29:20.627Z,23.00
2019-04-05T20:31:48.105Z,24.23
2019-04-05T20:34:17.833Z,23.27
2019-04-05T20:36:46.670Z,22.63
2019-04-05T20:39:15.531Z,23.77
2019-04-05T20:41:44.463Z,23.77
2019-04-05T20:44:13.656Z,24.10
2019-04-05T20:46:42.561Z,25.77
2019-04-05T20:49:12.825Z,26.60
2019-04-05T20:51:42.298Z,25.87
2019-04-05T20:54:12.151Z,23.80
2019-04-05T20:56:41.127Z,25.77
2019-04-05T20:59:09.980Z,26.37
2019-04-05T21:01:39.665Z,25.57
2019-04-05T21:04:08.712Z,25.83
2019-04-05T21:06:37.971Z,25.97
2019-04-05T21:09:07.879Z,24.83
2019-04-05T21:11:36.839Z,25.93
2019-04-05T21:14:05.756Z,26.00
2019-04-05T21:16:34.595Z,24.63
2019-04-05T21:19:05.052Z,25.80
2019-04-05T21:21:33.383Z,27.63
2019-04-05T21:24:02.603Z,29.00
2019-04-05T21:26:31.566Z,28.63
2019-04-05T21:29:00.482Z,28.73
2019-04-05T21:31:29.857Z,28.87
2019-04-05T21:33:59.156Z,30.43
2019-04-05T21:36:28.356Z,28.60
2019-04-05T21:38:58.189Z,29.53
2019-04-05T21:41:27.213Z,30.83
2019-04-05T21:43:56.957Z,30.63
2019-04-05T21:46:25.854Z,30.20
2019-04-05T21:48:54.725Z,29.80
2019-04-05T21:51:24.751Z,31.07
2019-04-05T21:53:53.283Z,32.80
2019-04-05T21:56:22.882Z,31.90
2019-04-05T21:58:51.868Z,31.93
2019-04-05T22:01:21.818Z,33.57
2019-04-05T22:03:50.737Z,35.00
2019-04-05T22:06:20.993Z,33.23
2019-04-05T22:08:50.025Z,33.57
2019-04-05T22:11:19.301Z,34.83
2019-04-05T22:13:48.250Z,35.43
2019-04-05T22:16:17.800Z,34.53
2019-04-05T22:18:46.790Z,33.30
2019-04-05T22:21:16.596Z,34.27
2019-04-05T22:23:45.676Z,34.13
2019-04-05T22:26:15.029Z,36.97
2019-04-05T22:28:44.053Z,36.77
2019-04-05T22:31:13.989Z,35.47
2019-04-05T22:33:42.926Z,35.43
2019-04-05T22:36:12.587Z,35.27
2019-04-05T22:38:41.520Z,36.77
2019-04-05T22:41:10.585Z,37.20
2019-04-05T22:43:39.642Z,36.40
2019-04-05T22:46:09.757Z,37.70
2019-04-05T22:48:38.688Z,36.00
2019-04-05T22:51:07.630Z,37.53
2019-04-05T22:53:36.735Z,38.27
2019-04-05T22:56:05.683Z,38.63
2019-04-05T22:58:34.720Z,39.90
2019-04-05T23:01:03.647Z,36.47
2019-04-05T23:03:32.878Z,40.57
2019-04-05T23:06:01.866Z,39.07
2019-04-05T23:08:30.767Z,39.47
2019-04-05T23:11:01.056Z,35.47
2019-04-05T23:13:30.332Z,38.17
2019-04-05T23:15:59.260Z,37.50
2019-04-05T23:18:28.181Z,39.10
2019-04-05T23:20:57.254Z,37.40
2019-04-05T23:23:26.653Z,37.57
2019-04-05T23:25:55.577Z,38.40
2019-04-05T23:28:24.585Z,38.03
2019-04-05T23:30:53.498Z,38.40
2019-04-05T23:33:22.430Z,39.07
2019-04-05T23:35:51.389Z,38.77
2019-04-05T23:38:21.128Z,39.20
2019-04-05T23:40:50.042Z,36.70
2019-04-05T23:43:19.093Z,38.57
2019-04-05T23:45:48.187Z,36.43
2019-04-05T23:48:17.784Z,37.87
2019-04-05T23:50:47.301Z,38.37
2019-04-05T23:53:17.225Z,37.53
2019-04-05T23:55:46.397Z,35.47
2019-04-05T23:58:15.345Z,36.77
